Time;durP1;ratioP1;P1;durP2;ratioP2;P2;SDS_P1;SDS_P2;PMS_P1;PMS_P2;Temp;Humidity;BMP_temperature;BMP_pressure;BME280_temperature;BME280_humidity;BME280_pressure;Samples;Min_cycle;Max_cycle;Signal;HPM_P1;HPM_P2
2024/01/16 00:01:01;;;;;;;4.28;2.63;;;;;;;;;;5130067;27;20088;-70
2024/01/16 00:03:28;;;;;;;3.72;2.60;;;;;;;;;;5129756;27;20073;-71
2024/01/16 00:05:55;;;;;;;3.88;2.60;;;;;;;;;;5130088;27;20111;-70
2024/01/16 00:08:23;;;;;;;4.45;3.10;;;;;;;;;;5129648;27;20046;-70
2024/01/16 00:10:50;;;;;;;4.85;2.60;;;;;;;;;;5129302;27;20131;-70
2024/01/16 00:13:17;;;;;;;4.55;2.72;;;;;;;;;;5129467;27;20539;-70
2024/01/16 00:15:44;;;;;;;5.50;2.60;;;;;;;;;;5129944;27;20095;-70
2024/01/16 00:18:11;;;;;;;4.35;2.85;;;;;;;;;;5130365;27;20065;-70
2024/01/16 00:20:40;;;;;;;5.38;2.33;;;;;;;;;;5129696;27;20053;-70
2024/01/16 00:23:06;;;;;;;3.83;2.70;;;;;;;;;;5129789;27;20092;-70
2024/01/16 00:25:34;;;;;;;3.13;2.10;;;;;;;;;;5128972;28;20092;-69
2024/01/16 00:28:01;;;;;;;3.30;2.28;;;;;;;;;;5129470;27;20047;-70
2024/01/16 00:30:29;;;;;;;3.70;2.25;;;;;;;;;;5129443;28;20449;-70
2024/01/16 00:32:56;;;;;;;3.42;2.10;;;;;;;;;;5129571;28;20043;-70
2024/01/16 00:35:23;;;;;;;3.35;2.08;;;;;;;;;;5129674;28;20175;-70
2024/01/16 00:37:50;;;;;;;3.60;2.25;;;;;;;;;;5129933;28;20039;-70
2024/01/16 00:40:17;;;;;;;3.70;2.03;;;;;;;;;;5111056;28;20047;-70
2024/01/16 00:42:43;;;;;;;2.90;1.85;;;;;;;;;;5129876;28;20051;-69
2024/01/16 00:45:11;;;;;;;3.65;2.00;;;;;;;;;;5129322;28;20047;-70
2024/01/16 00:47:38;;;;;;;2.90;1.80;;;;;;;;;;5129527;28;20049;-70
2024/01/16 00:50:05;;;;;;;2.53;1.50;;;;;;;;;;5129781;28;20468;-68
2024/01/16 00:52:32;;;;;;;2.92;1.50;;;;;;;;;;5129439;27;20040;-71
2024/01/16 00:54:59;;;;;;;2.90;1.42;;;;;;;;;;5132776;27;20054;-71
2024/01/16 00:57:26;;;;;;;1.98;1.20;;;;;;;;;;5133999;27;20089;-70
2024/01/16 00:59:53;;;;;;;1.70;1.00;;;;;;;;;;5133676;27;20047;-71
2024/01/16 01:02:20;;;;;;;2.00;0.90;;;;;;;;;;5133815;27;20043;-71
2024/01/16 01:04:47;;;;;;;1.77;1.20;;;;;;;;;;5133594;27;20041;-71
2024/01/16 01:07:15;;;;;;;1.40;1.00;;;;;;;;;;5133352;27;20053;-70
2024/01/16 01:09:44;;;;;;;1.30;0.70;;;;;;;;;;5114494;27;20055;-70
2024/01/16 01:12:13;;;;;;;1.00;0.70;;;;;;;;;;5133144;27;20559;-70
2024/01/16 01:14:40;;;;;;;1.55;0.80;;;;;;;;;;5133162;27;20418;-70
2024/01/16 01:17:07;;;;;;;0.98;0.70;;;;;;;;;;5133335;27;20092;-70
2024/01/16 01:19:34;;;;;;;1.60;0.63;;;;;;;;;;5133172;27;20054;-70
2024/01/16 01:22:01;;;;;;;0.63;0.55;;;;;;;;;;5133115;27;20403;-70
2024/01/16 01:24:27;;;;;;;0.68;0.50;;;;;;;;;;5132606;27;20077;-70
2024/01/16 01:26:55;;;;;;;0.60;0.40;;;;;;;;;;5133021;27;20039;-70
2024/01/16 01:29:21;;;;;;;0.70;0.50;;;;;;;;;;5132768;27;20487;-70
2024/01/16 01:31:48;;;;;;;0.80;0.50;;;;;;;;;;5132738;27;20111;-70
2024/01/16 01:34:15;;;;;;;1.27;0.40;;;;;;;;;;5132385;27;20092;-69
2024/01/16 01:36:44;;;;;;;0.47;0.30;;;;;;;;;;5132647;27;20043;-71
2024/01/16 01:39:12;;;;;;;0.40;0.30;;;;;;;;;;5132677;27;20055;-71
2024/01/16 01:41:39;;;;;;;0.93;0.60;;;;;;;;;;5132940;27;20050;-71
2024/01/16 01:44:06;;;;;;;0.35;0.30;;;;;;;;;;5132452;27;20124;-71
2024/01/16 01:46:34;;;;;;;0.95;0.50;;;;;;;;;;5132476;27;20043;-71
2024/01/16 01:49:02;;;;;;;0.75;0.50;;;;;;;;;;5132744;27;20459;-71
2024/01/16 01:51:30;;;;;;;0.82;0.40;;;;;;;;;;5132665;27;20053;-71
2024/01/16 01:53:58;;;;;;;1.33;0.60;;;;;;;;;;5131998;27;20073;-71
2024/01/16 01:56:27;;;;;;;0.60;0.40;;;;;;;;;;5132375;27;20051;-71
2024/01/16 01:58:58;;;;;;;0.90;0.60;;;;;;;;;;5114413;27;20044;-70
2024/01/16 02:01:29;;;;;;;0.68;0.50;;;;;;;;;;5132552;27;20494;-70
2024/01/16 02:03:57;;;;;;;0.63;0.60;;;;;;;;;;5132469;27;20051;-70
2024/01/16 02:06:24;;;;;;;0.90;0.68;;;;;;;;;;5131364;27;20039;-70
2024/01/16 02:08:52;;;;;;;0.93;0.57;;;;;;;;;;5132143;27;20047;-69
2024/01/16 02:11:22;;;;;;;1.10;0.70;;;;;;;;;;5131813;27;20047;-70
2024/01/16 02:13:52;;;;;;;0.80;0.57;;;;;;;;;;5113823;27;20499;-70
2024/01/16 02:16:23;;;;;;;0.82;0.60;;;;;;;;;;5131902;27;20051;-69
2024/01/16 02:18:51;;;;;;;1.40;0.60;;;;;;;;;;5132090;27;20047;-70
2024/01/16 02:21:21;;;;;;;1.17;0.80;;;;;;;;;;5131875;27;20043;-70
2024/01/16 02:23:48;;;;;;;1.38;0.88;;;;;;;;;;5131737;27;20648;-70
2024/01/16 02:26:18;;;;;;;1.15;0.60;;;;;;;;;;5131555;27;20073;-70
2024/01/16 02:28:46;;;;;;;0.90;0.70;;;;;;;;;;5131457;27;20665;-70
2024/01/16 02:31:13;;;;;;;1.45;0.70;;;;;;;;;;5131990;27;20046;-70
2024/01/16 02:33:39;;;;;;;1.17;0.57;;;;;;;;;;5131383;27;20451;-70
2024/01/16 02:36:06;;;;;;;1.13;0.75;;;;;;;;;;5131371;27;20051;-70
2024/01/16 02:38:34;;;;;;;0.98;0.60;;;;;;;;;;5131948;27;20053;-71
2024/01/16 02:41:03;;;;;;;0.60;0.52;;;;;;;;;;5131211;27;20089;-69
2024/01/16 02:43:30;;;;;;;0.90;0.60;;;;;;;;;;5131635;27;20043;-69
2024/01/16 02:45:57;;;;;;;1.25;0.50;;;;;;;;;;5131325;27;20069;-69
2024/01/16 02:48:25;;;;;;;1.30;0.75;;;;;;;;;;5131119;27;20043;-70
2024/01/16 02:50:52;;;;;;;0.70;0.50;;;;;;;;;;5131264;27;20043;-70
2024/01/16 02:53:19;;;;;;;1.00;0.50;;;;;;;;;;5131415;27;20039;-70
2024/01/16 02:55:46;;;;;;;1.08;0.32;;;;;;;;;;5130453;27;20096;-70
2024/01/16 02:58:12;;;;;;;1.20;0.85;;;;;;;;;;5131231;27;20576;-70
2024/01/16 03:00:39;;;;;;;1.15;0.40;;;;;;;;;;5131189;27;20047;-70
2024/01/16 03:03:06;;;;;;;0.77;0.60;;;;;;;;;;5131461;27;20067;-70
2024/01/16 03:05:33;;;;;;;0.47;0.40;;;;;;;;;;5130931;27;20115;-70
2024/01/16 03:08:00;;;;;;;0.60;0.50;;;;;;;;;;5130844;27;20186;-70
2024/01/16 03:10:27;;;;;;;1.17;0.60;;;;;;;;;;5130294;27;20055;-70
2024/01/16 03:12:54;;;;;;;1.00;0.60;;;;;;;;;;5131064;27;20047;-71
2024/01/16 03:15:20;;;;;;;1.35;0.68;;;;;;;;;;5130601;27;20051;-70
2024/01/16 03:17:50;;;;;;;0.47;0.40;;;;;;;;;;5130750;27;20054;-70
2024/01/16 03:20:18;;;;;;;1.20;0.60;;;;;;;;;;5131223;27;20135;-70
2024/01/16 03:22:45;;;;;;;0.50;0.40;;;;;;;;;;5130821;27;20054;-70
2024/01/16 03:25:12;;;;;;;0.57;0.40;;;;;;;;;;5129900;27;20498;-70
2024/01/16 03:27:39;;;;;;;0.50;0.40;;;;;;;;;;5130489;27;20044;-70
2024/01/16 03:30:06;;;;;;;0.85;0.50;;;;;;;;;;5130169;27;20047;-69
2024/01/16 03:32:34;;;;;;;0.38;0.35;;;;;;;;;;5130398;27;20438;-69
2024/01/16 03:35:00;;;;;;;0.40;0.40;;;;;;;;;;5129971;27;20124;-69
2024/01/16 03:37:27;;;;;;;0.63;0.50;;;;;;;;;;5130338;27;20047;-69
2024/01/16 03:39:54;;;;;;;0.98;0.50;;;;;;;;;;5130099;27;20039;-69
2024/01/16 03:42:21;;;;;;;0.93;0.63;;;;;;;;;;5130756;27;20043;-69
2024/01/16 03:44:48;;;;;;;0.90;0.70;;;;;;;;;;5129915;27;20039;-69
2024/01/16 03:47:15;;;;;;;2.15;0.80;;;;;;;;;;5130177;27;20039;-69
2024/01/16 03:49:41;;;;;;;1.25;0.80;;;;;;;;;;5130455;27;20043;-71
2024/01/16 03:52:08;;;;;;;2.10;0.90;;;;;;;;;;5130258;27;20055;-71
2024/01/16 03:54:35;;;;;;;1.33;0.77;;;;;;;;;;5130092;27;20094;-70
2024/01/16 03:57:02;;;;;;;1.33;0.80;;;;;;;;;;5130334;27;20047;-70
2024/01/16 03:59:28;;;;;;;2.35;1.10;;;;;;;;;;5130346;27;20039;-70
2024/01/16 04:01:55;;;;;;;0.88;0.60;;;;;;;;;;5130138;27;20104;-71
2024/01/16 04:04:22;;;;;;;1.30;0.82;;;;;;;;;;5129929;27;20051;-70
2024/01/16 04:06:49;;;;;;;0.82;0.60;;;;;;;;;;5129782;27;20051;-70
2024/01/16 04:09:16;;;;;;;0.75;0.57;;;;;;;;;;5129416;27;20054;-69
2024/01/16 04:11:43;;;;;;;1.02;0.45;;;;;;;;;;5129826;27;20047;-70
2024/01/16 04:14:09;;;;;;;0.70;0.60;;;;;;;;;;5129829;27;20067;-70
2024/01/16 04:16:36;;;;;;;1.08;0.60;;;;;;;;;;5129608;27;20488;-69
2024/01/16 04:19:03;;;;;;;2.08;0.80;;;;;;;;;;5129772;27;20045;-70
2024/01/16 04:21:30;;;;;;;2.05;0.90;;;;;;;;;;5130076;27;20054;-70
2024/01/16 04:23:56;;;;;;;0.70;0.60;;;;;;;;;;5129315;28;20043;-70
2024/01/16 04:26:24;;;;;;;1.40;0.70;;;;;;;;;;5129476;28;20107;-70
2024/01/16 04:28:52;;;;;;;0.68;0.55;;;;;;;;;;5129535;27;20050;-70
2024/01/16 04:31:21;;;;;;;1.02;0.68;;;;;;;;;;5129456;28;20442;-71
2024/01/16 04:33:48;;;;;;;1.10;0.80;;;;;;;;;;5129549;28;20046;-70
2024/01/16 04:36:15;;;;;;;1.20;0.70;;;;;;;;;;5129667;28;20055;-71
2024/01/16 04:38:42;;;;;;;1.30;0.90;;;;;;;;;;5129770;28;20513;-70
2024/01/16 04:41:08;;;;;;;1.52;1.00;;;;;;;;;;5129108;28;20051;-69
2024/01/16 04:43:35;;;;;;;1.30;0.85;;;;;;;;;;5129375;28;20047;-69
2024/01/16 04:46:02;;;;;;;2.22;0.90;;;;;;;;;;5129671;28;20047;-70
2024/01/16 04:48:29;;;;;;;1.42;0.90;;;;;;;;;;5129176;28;20380;-69
2024/01/16 04:50:56;;;;;;;1.88;1.10;;;;;;;;;;5129344;28;20487;-69
2024/01/16 04:53:25;;;;;;;2.45;1.05;;;;;;;;;;5129259;28;20078;-69
2024/01/16 04:55:52;;;;;;;1.40;0.90;;;;;;;;;;5128728;28;20047;-70
2024/01/16 04:58:19;;;;;;;0.98;0.88;;;;;;;;;;5129768;28;20042;-69
2024/01/16 05:00:46;;;;;;;2.17;1.10;;;;;;;;;;5129182;28;20061;-69
2024/01/16 05:03:13;;;;;;;1.83;1.10;;;;;;;;;;5129698;28;20043;-69
2024/01/16 05:05:40;;;;;;;1.38;0.90;;;;;;;;;;5129035;28;20455;-70
2024/01/16 05:08:07;;;;;;;2.25;1.10;;;;;;;;;;5129178;28;20086;-70
2024/01/16 05:10:34;;;;;;;1.70;0.90;;;;;;;;;;5128780;28;20051;-70
2024/01/16 05:13:01;;;;;;;1.42;0.90;;;;;;;;;;5129145;28;20047;-70
2024/01/16 05:15:28;;;;;;;2.55;1.40;;;;;;;;;;5129099;28;20194;-69
2024/01/16 05:17:57;;;;;;;2.65;1.20;;;;;;;;;;5129417;28;20078;-70
2024/01/16 05:20:24;;;;;;;1.92;1.08;;;;;;;;;;5129623;28;20105;-70
2024/01/16 05:22:51;;;;;;;1.92;1.00;;;;;;;;;;5129306;28;20422;-70
2024/01/16 05:25:18;;;;;;;1.88;1.00;;;;;;;;;;5128706;28;20487;-70
2024/01/16 05:27:45;;;;;;;1.65;0.90;;;;;;;;;;5110374;28;20047;-70
2024/01/16 05:30:11;;;;;;;1.70;0.77;;;;;;;;;;5129076;28;20047;-70
2024/01/16 05:32:41;;;;;;;1.75;1.05;;;;;;;;;;5129028;27;20048;-70
2024/01/16 05:35:09;;;;;;;0.90;0.75;;;;;;;;;;5129081;27;20415;-70
2024/01/16 05:37:36;;;;;;;1.35;0.85;;;;;;;;;;5129228;28;20039;-70
2024/01/16 05:40:03;;;;;;;1.33;0.80;;;;;;;;;;5129822;27;20079;-70
2024/01/16 05:42:30;;;;;;;1.33;0.75;;;;;;;;;;5132777;27;20046;-70
2024/01/16 05:44:57;;;;;;;2.17;1.17;;;;;;;;;;5132755;27;20054;-71
2024/01/16 05:47:27;;;;;;;1.33;0.70;;;;;;;;;;5132078;27;20115;-70
2024/01/16 05:49:54;;;;;;;;;;;;;;;;;;5132848;27;20047;-70
2024/01/16 05:52:21;;;;;;;1.05;0.63;;;;;;;;;;5132653;27;19965;-70
2024/01/16 05:54:48;;;;;;;1.40;0.90;;;;;;;;;;5132259;27;20050;-70
2024/01/16 05:57:14;;;;;;;1.30;0.80;;;;;;;;;;5132486;27;20134;-70
2024/01/16 05:59:41;;;;;;;0.70;0.60;;;;;;;;;;5132675;27;20054;-71
2024/01/16 06:02:08;;;;;;;0.90;0.70;;;;;;;;;;5132554;27;20047;-70
2024/01/16 06:04:36;;;;;;;1.00;0.65;;;;;;;;;;5132625;27;20045;-70
2024/01/16 06:07:07;;;;;;;0.80;0.60;;;;;;;;;;5113683;27;20039;-70
2024/01/16 06:09:39;;;;;;;1.20;0.60;;;;;;;;;;5131422;27;20511;-70
2024/01/16 06:12:09;;;;;;;1.35;0.60;;;;;;;;;;5132290;27;20044;-69
2024/01/16 06:14:36;;;;;;;1.13;0.60;;;;;;;;;;5132401;27;20047;-70
2024/01/16 06:17:05;;;;;;;0.82;0.52;;;;;;;;;;5131941;27;20134;-71
2024/01/16 06:19:32;;;;;;;0.52;0.45;;;;;;;;;;5132618;27;20092;-71
2024/01/16 06:22:00;;;;;;;1.40;0.50;;;;;;;;;;5131730;27;20044;-71
2024/01/16 06:24:26;;;;;;;1.50;0.70;;;;;;;;;;5131370;27;20119;-70
2024/01/16 06:26:53;;;;;;;0.95;0.40;;;;;;;;;;5131772;27;20051;-70
2024/01/16 06:29:20;;;;;;;0.60;0.47;;;;;;;;;;5131823;27;20051;-70
2024/01/16 06:32:00;;;;;;;0.40;0.40;;;;;;;;;;5131990;27;20042;-70
2024/01/16 06:34:27;;;;;;;0.77;0.50;;;;;;;;;;5131749;27;20043;-69
2024/01/16 06:36:54;;;;;;;0.70;0.50;;;;;;;;;;5131362;27;20107;-70
2024/01/16 06:39:21;;;;;;;0.68;0.57;;;;;;;;;;5131300;27;20050;-70
2024/01/16 06:41:48;;;;;;;0.98;0.50;;;;;;;;;;5131403;27;20433;-70
2024/01/16 06:44:14;;;;;;;0.93;0.40;;;;;;;;;;5131567;27;20070;-70
2024/01/16 06:46:41;;;;;;;0.57;0.52;;;;;;;;;;5131334;27;20051;-70
2024/01/16 06:49:08;;;;;;;0.50;0.40;;;;;;;;;;5131219;27;20059;-70
2024/01/16 06:51:35;;;;;;;0.50;0.43;;;;;;;;;;5131232;27;20043;-69
2024/01/16 06:54:03;;;;;;;0.80;0.50;;;;;;;;;;5131330;27;20047;-69
2024/01/16 06:56:30;;;;;;;0.70;0.38;;;;;;;;;;5131367;27;20392;-69
2024/01/16 06:58:57;;;;;;;0.68;0.50;;;;;;;;;;5131297;27;20070;-69
2024/01/16 07:01:24;;;;;;;0.82;0.50;;;;;;;;;;5131072;27;20043;-69
2024/01/16 07:03:52;;;;;;;0.65;0.50;;;;;;;;;;5131267;27;20075;-69
2024/01/16 07:06:19;;;;;;;1.30;0.60;;;;;;;;;;5130690;27;21086;-70
2024/01/16 07:08:47;;;;;;;1.58;0.50;;;;;;;;;;5130735;27;20070;-69
2024/01/16 07:11:13;;;;;;;0.80;0.50;;;;;;;;;;5130795;27;20051;-69
2024/01/16 07:13:41;;;;;;;1.33;0.70;;;;;;;;;;5130965;27;20072;-70
2024/01/16 07:16:11;;;;;;;0.95;0.57;;;;;;;;;;5131029;27;20093;-70
2024/01/16 07:18:38;;;;;;;0.82;0.70;;;;;;;;;;5131018;27;20039;-70
2024/01/16 07:21:16;;;;;;;2.00;0.60;;;;;;;;;;5130568;27;20039;-69
2024/01/16 07:23:43;;;;;;;1.45;0.60;;;;;;;;;;5130336;27;20047;-70
2024/01/16 07:26:10;;;;;;;1.52;0.65;;;;;;;;;;5130155;27;20071;-70
2024/01/16 07:28:36;;;;;;;1.13;0.60;;;;;;;;;;5130092;27;20047;-70
2024/01/16 07:31:03;;;;;;;0.95;0.50;;;;;;;;;;5130677;27;20047;-69
2024/01/16 07:33:30;;;;;;;2.70;0.60;;;;;;;;;;5112447;27;20054;-70
2024/01/16 07:35:58;;;;;;;1.83;0.60;;;;;;;;;;5130517;27;20106;-69
2024/01/16 07:38:25;;;;;;;0.80;0.47;;;;;;;;;;5130498;27;20043;-69
2024/01/16 07:40:51;;;;;;;1.17;0.65;;;;;;;;;;5129832;27;20046;-70
2024/01/16 07:43:18;;;;;;;1.80;0.50;;;;;;;;;;5130170;27;20043;-71
2024/01/16 07:45:45;;;;;;;1.42;0.60;;;;;;;;;;5129922;27;20054;-69
2024/01/16 07:48:11;;;;;;;1.90;0.60;;;;;;;;;;5130320;27;20047;-71
2024/01/16 07:50:38;;;;;;;1.50;0.60;;;;;;;;;;5130248;27;20118;-71
2024/01/16 07:53:05;;;;;;;1.02;0.70;;;;;;;;;;5130344;27;20043;-70
2024/01/16 07:55:32;;;;;;;0.95;0.60;;;;;;;;;;5129840;27;20047;-70
2024/01/16 07:57:59;;;;;;;2.15;0.70;;;;;;;;;;5129719;27;20062;-70
2024/01/16 08:00:27;;;;;;;1.40;0.60;;;;;;;;;;5129905;27;20058;-70
2024/01/16 08:02:54;;;;;;;1.00;0.70;;;;;;;;;;5129484;27;20138;-70
2024/01/16 08:05:24;;;;;;;1.98;0.70;;;;;;;;;;5130008;27;20051;-69
2024/01/16 08:07:51;;;;;;;0.88;0.50;;;;;;;;;;5129647;27;20125;-70
2024/01/16 08:10:18;;;;;;;1.83;0.70;;;;;;;;;;5129366;27;20051;-69
2024/01/16 08:12:45;;;;;;;1.50;0.70;;;;;;;;;;5129712;27;20490;-70
2024/01/16 08:15:12;;;;;;;1.40;0.77;;;;;;;;;;5129951;27;20503;-69
2024/01/16 08:17:39;;;;;;;2.17;0.70;;;;;;;;;;5129578;27;20415;-70
2024/01/16 08:20:09;;;;;;;1.30;0.70;;;;;;;;;;5129530;27;20043;-70
2024/01/16 08:22:38;;;;;;;2.00;0.80;;;;;;;;;;5129470;27;20039;-70
2024/01/16 08:25:08;;;;;;;0.93;0.70;;;;;;;;;;5129222;27;20090;-69
2024/01/16 08:27:34;;;;;;;0.82;0.68;;;;;;;;;;5129317;28;20093;-70
2024/01/16 08:30:01;;;;;;;2.95;1.00;;;;;;;;;;5129777;28;20043;-71
2024/01/16 08:32:28;;;;;;;2.83;1.30;;;;;;;;;;5129619;28;20039;-70
2024/01/16 08:34:54;;;;;;;4.00;1.40;;;;;;;;;;5129567;28;20543;-71
2024/01/16 08:37:21;;;;;;;1.95;1.00;;;;;;;;;;5129641;28;20043;-70
2024/01/16 08:39:48;;;;;;;1.35;0.90;;;;;;;;;;5129547;28;20138;-70
2024/01/16 08:42:15;;;;;;;1.63;1.00;;;;;;;;;;5129447;28;20043;-69
2024/01/16 08:44:41;;;;;;;2.10;0.90;;;;;;;;;;5129647;28;20531;-69
2024/01/16 08:47:09;;;;;;;1.83;1.00;;;;;;;;;;5129203;28;20047;-70
2024/01/16 08:49:38;;;;;;;2.63;0.98;;;;;;;;;;5129757;28;20047;-71
2024/01/16 08:52:05;;;;;;;2.17;1.00;;;;;;;;;;5129477;28;20429;-70
2024/01/16 08:54:32;;;;;;;1.80;1.00;;;;;;;;;;5129046;28;20466;-70
2024/01/16 08:56:59;;;;;;;2.85;1.25;;;;;;;;;;5129150;28;20052;-70
2024/01/16 08:59:25;;;;;;;2.33;1.10;;;;;;;;;;5129157;28;20043;-70
2024/01/16 09:01:52;;;;;;;3.30;1.20;;;;;;;;;;5129679;28;20050;-70
2024/01/16 09:04:19;;;;;;;5.65;1.23;;;;;;;;;;5129143;28;20047;-69
2024/01/16 09:06:45;;;;;;;2.42;1.00;;;;;;;;;;5129210;28;20051;-69
2024/01/16 09:09:13;;;;;;;4.03;1.10;;;;;;;;;;5128514;28;20080;-69
2024/01/16 09:11:39;;;;;;;2.53;1.10;;;;;;;;;;5129683;28;20050;-69
2024/01/16 09:14:06;;;;;;;2.95;1.10;;;;;;;;;;5129993;27;20419;-69
2024/01/16 09:16:33;;;;;;;2.13;1.00;;;;;;;;;;5133093;27;20506;-69
2024/01/16 09:18:59;;;;;;;1.90;1.20;;;;;;;;;;5133099;27;20039;-69
2024/01/16 09:21:26;;;;;;;3.40;1.10;;;;;;;;;;5133217;27;20069;-70
2024/01/16 09:23:53;;;;;;;3.08;1.25;;;;;;;;;;5132749;27;20055;-69
2024/01/16 09:26:20;;;;;;;3.67;1.20;;;;;;;;;;5132874;27;20543;-69
2024/01/16 09:28:47;;;;;;;2.60;1.13;;;;;;;;;;5133017;27;20043;-69
2024/01/16 09:31:15;;;;;;;3.17;0.85;;;;;;;;;;5133052;27;20043;-70
2024/01/16 09:33:43;;;;;;;1.92;0.90;;;;;;;;;;5132959;27;20080;-69
2024/01/16 09:36:10;;;;;;;3.15;0.80;;;;;;;;;;5132743;27;20043;-69
2024/01/16 09:38:37;;;;;;;3.53;0.90;;;;;;;;;;5132620;27;20126;-69
2024/01/16 09:41:04;;;;;;;1.83;0.75;;;;;;;;;;5132519;27;20081;-69
2024/01/16 09:43:32;;;;;;;2.00;0.75;;;;;;;;;;5132490;27;20104;-69
2024/01/16 09:46:01;;;;;;;3.38;0.80;;;;;;;;;;5132817;27;20136;-70
2024/01/16 09:48:30;;;;;;;1.45;0.80;;;;;;;;;;5132430;27;20055;-69
2024/01/16 09:50:58;;;;;;;1.30;0.60;;;;;;;;;;5132524;27;20126;-71
2024/01/16 09:53:25;;;;;;;1.60;0.77;;;;;;;;;;5132540;27;20068;-70
2024/01/16 09:55:55;;;;;;;2.47;0.70;;;;;;;;;;5132373;27;20122;-71
2024/01/16 09:58:23;;;;;;;0.88;0.60;;;;;;;;;;5132111;27;20047;-71
2024/01/16 10:00:52;;;;;;;1.92;0.77;;;;;;;;;;5132542;27;20043;-71
2024/01/16 10:03:19;;;;;;;3.08;1.00;;;;;;;;;;5132317;27;20043;-70
2024/01/16 10:05:48;;;;;;;3.33;0.80;;;;;;;;;;5132293;27;20047;-70
2024/01/16 10:08:15;;;;;;;2.08;0.75;;;;;;;;;;5132362;27;20046;-70
2024/01/16 10:10:42;;;;;;;2.60;0.75;;;;;;;;;;5131649;27;20169;-70
2024/01/16 10:13:16;;;;;;;3.63;0.73;;;;;;;;;;5132395;27;20138;-70
2024/01/16 10:15:44;;;;;;;0.80;0.50;;;;;;;;;;5132001;27;20051;-70
2024/01/16 10:18:27;;;;;;;2.13;0.80;;;;;;;;;;5131791;27;20054;-71
2024/01/16 10:20:54;;;;;;;1.77;0.50;;;;;;;;;;5132130;27;20050;-71
2024/01/16 10:23:29;;;;;;;1.50;0.60;;;;;;;;;;5132089;27;20046;-71
2024/01/16 10:26:09;;;;;;;2.35;0.75;;;;;;;;;;5131197;27;20045;-71
2024/01/16 10:28:39;;;;;;;2.05;0.77;;;;;;;;;;5131485;27;20051;-71
2024/01/16 10:31:11;;;;;;;2.25;0.77;;;;;;;;;;5131858;27;20130;-71
2024/01/16 10:33:39;;;;;;;3.63;0.95;;;;;;;;;;5131574;27;20103;-69
2024/01/16 10:36:13;;;;;;;1.70;0.60;;;;;;;;;;5131597;27;20071;-71
2024/01/16 10:38:40;;;;;;;1.88;0.75;;;;;;;;;;5131535;27;20072;-70
2024/01/16 10:41:17;;;;;;;2.47;0.75;;;;;;;;;;5131253;27;20536;-70
2024/01/16 10:43:45;;;;;;;3.65;0.95;;;;;;;;;;5131683;27;20118;-70
2024/01/16 10:46:18;;;;;;;1.80;0.70;;;;;;;;;;5131544;27;20043;-70
2024/01/16 10:49:01;;;;;;;1.55;0.57;;;;;;;;;;5131117;27;20626;-70
2024/01/16 10:51:29;;;;;;;1.70;0.70;;;;;;;;;;5131774;27;20039;-70
2024/01/16 10:54:05;;;;;;;4.43;1.00;;;;;;;;;;5130733;27;20047;-69
2024/01/16 10:56:32;;;;;;;2.60;0.70;;;;;;;;;;5131411;27;20050;-70
2024/01/16 10:59:20;;;;;;;2.72;1.15;;;;;;;;;;5131111;27;20057;-70
2024/01/16 11:02:00;;;;;;;2.25;0.80;;;;;;;;;;5131460;27;20138;-69
2024/01/16 11:04:28;;;;;;;3.92;0.90;;;;;;;;;;5131456;27;20051;-69
2024/01/16 11:06:55;;;;;;;2.20;1.00;;;;;;;;;;5130978;27;20051;-70
2024/01/16 11:09:22;;;;;;;2.85;0.90;;;;;;;;;;5130194;27;20046;-69
2024/01/16 11:11:51;;;;;;;2.38;0.75;;;;;;;;;;5131108;27;20053;-70
2024/01/16 11:14:22;;;;;;;1.42;0.60;;;;;;;;;;5130637;27;20043;-69
2024/01/16 11:16:54;;;;;;;2.58;0.80;;;;;;;;;;5130837;27;20047;-70
2024/01/16 11:19:20;;;;;;;;;;;;;;;;;;5131228;27;20125;-69
2024/01/16 11:22:04;;;;;;;1.92;0.63;;;;;;;;;;5130929;27;19964;-69
2024/01/16 11:24:31;;;;;;;1.70;0.75;;;;;;;;;;5130403;27;20525;-69
2024/01/16 11:26:58;;;;;;;2.58;0.75;;;;;;;;;;5130883;27;20049;-69
2024/01/16 11:29:28;;;;;;;2.45;0.90;;;;;;;;;;5130169;27;20466;-70
2024/01/16 11:31:56;;;;;;;1.92;0.70;;;;;;;;;;5130788;27;20043;-70
2024/01/16 11:34:49;;;;;;;2.05;0.73;;;;;;;;;;5109884;28;20092;-69
2024/01/16 11:37:26;;;;;;;1.80;0.80;;;;;;;;;;5109501;28;20083;-70
2024/01/16 11:40:21;;;;;;;2.33;0.77;;;;;;;;;;5109264;28;20057;-69
2024/01/16 11:42:49;;;;;;;3.08;0.88;;;;;;;;;;5110070;28;20097;-69
2024/01/16 11:45:29;;;;;;;2.78;0.82;;;;;;;;;;5109961;28;20047;-70
2024/01/16 11:48:15;;;;;;;2.20;0.63;;;;;;;;;;5109852;28;20069;-69
2024/01/16 11:50:43;;;;;;;3.00;0.70;;;;;;;;;;5109200;28;20399;-70
2024/01/16 11:53:10;;;;;;;1.52;0.80;;;;;;;;;;5109487;28;20109;-69
2024/01/16 11:55:58;;;;;;;2.97;0.77;;;;;;;;;;5109504;28;20044;-69
2024/01/16 11:58:25;;;;;;;4.35;0.85;;;;;;;;;;5109803;28;20039;-71
2024/01/16 12:00:53;;;;;;;3.03;0.80;;;;;;;;;;5109730;28;20059;-71
2024/01/16 12:03:23;;;;;;;2.78;0.70;;;;;;;;;;5109674;28;20050;-69
2024/01/16 12:06:01;;;;;;;2.10;0.80;;;;;;;;;;5109541;28;20054;-70
2024/01/16 12:08:29;;;;;;;1.60;0.70;;;;;;;;;;5109336;28;20516;-70
2024/01/16 12:10:57;;;;;;;1.88;0.70;;;;;;;;;;5108613;28;20568;-70
2024/01/16 12:13:24;;;;;;;3.03;0.90;;;;;;;;;;5109327;28;20097;-70
2024/01/16 12:16:01;;;;;;;2.45;0.98;;;;;;;;;;5109734;28;20134;-70
2024/01/16 12:18:28;;;;;;;4.57;0.98;;;;;;;;;;5109453;28;20053;-70
2024/01/16 12:21:09;;;;;;;1.77;0.63;;;;;;;;;;5093172;28;20522;-70
2024/01/16 12:23:36;;;;;;;3.58;1.00;;;;;;;;;;5109375;28;20107;-71
2024/01/16 12:26:05;;;;;;;1.70;0.70;;;;;;;;;;5108877;28;20047;-70
2024/01/16 12:28:32;;;;;;;1.17;0.60;;;;;;;;;;5109196;28;20043;-70
2024/01/16 12:31:00;;;;;;;1.58;0.70;;;;;;;;;;5108944;28;20062;-70
2024/01/16 12:33:28;;;;;;;2.38;0.90;;;;;;;;;;5119753;28;20485;-70
2024/01/16 12:36:03;;;;;;;2.05;0.75;;;;;;;;;;5129862;28;20134;-70
2024/01/16 12:38:31;;;;;;;2.45;0.60;;;;;;;;;;5129585;28;20415;-71
2024/01/16 12:41:01;;;;;;;2.08;0.70;;;;;;;;;;5129053;28;20103;-69
2024/01/16 12:43:29;;;;;;;;;;;;;;;;;;5130112;28;20047;-70
2024/01/16 12:45:57;;;;;;;2.13;0.70;;;;;;;;;;5111218;28;20394;-69
2024/01/16 12:48:25;;;;;;;3.35;0.80;;;;;;;;;;5129468;27;20043;-70
2024/01/16 12:51:02;;;;;;;1.90;0.70;;;;;;;;;;5133515;27;20047;-70
2024/01/16 12:53:36;;;;;;;1.17;0.52;;;;;;;;;;5133844;27;20043;-71
2024/01/16 12:56:04;;;;;;;3.03;0.70;;;;;;;;;;5133413;27;20046;-70
2024/01/16 12:58:35;;;;;;;1.42;0.55;;;;;;;;;;5133497;27;20564;-70
2024/01/16 13:01:22;;;;;;;2.38;0.80;;;;;;;;;;5133113;27;20079;-70
2024/01/16 13:04:04;;;;;;;1.92;0.90;;;;;;;;;;5133688;27;20070;-70
2024/01/16 13:06:31;;;;;;;2.58;0.82;;;;;;;;;;5133273;27;20051;-70
2024/01/16 13:09:10;;;;;;;2.63;0.80;;;;;;;;;;5133259;27;20054;-70
2024/01/16 13:12:04;;;;;;;3.47;1.00;;;;;;;;;;5133557;27;20043;-70
2024/01/16 13:14:31;;;;;;;1.92;0.70;;;;;;;;;;5129123;27;20123;-70
2024/01/16 13:16:58;;;;;;;1.35;0.60;;;;;;;;;;5133268;27;20050;-69
2024/01/16 13:19:25;;;;;;;2.83;0.70;;;;;;;;;;5133203;27;20066;-71
2024/01/16 13:21:53;;;;;;;1.67;0.60;;;;;;;;;;5132831;27;20078;-70
2024/01/16 13:24:23;;;;;;;2.25;0.90;;;;;;;;;;5132382;27;20043;-70
2024/01/16 13:26:51;;;;;;;1.73;0.73;;;;;;;;;;5133282;27;20126;-69
2024/01/16 13:29:19;;;;;;;3.00;0.60;;;;;;;;;;5133105;27;20095;-69
2024/01/16 13:31:46;;;;;;;3.10;0.98;;;;;;;;;;5133041;27;20100;-69
2024/01/16 13:34:14;;;;;;;1.08;0.63;;;;;;;;;;5132733;27;20460;-70
2024/01/16 13:36:43;;;;;;;2.72;0.70;;;;;;;;;;5133157;27;20047;-69
2024/01/16 13:39:14;;;;;;;2.05;0.70;;;;;;;;;;5132826;27;20055;-70
2024/01/16 13:41:43;;;;;;;2.35;0.60;;;;;;;;;;5132483;27;20043;-70
2024/01/16 13:44:09;;;;;;;1.10;0.55;;;;;;;;;;5132678;27;20391;-70
2024/01/16 13:46:37;;;;;;;1.77;0.70;;;;;;;;;;5132937;27;20051;-70
2024/01/16 13:49:07;;;;;;;2.00;0.85;;;;;;;;;;5133015;27;20047;-70
2024/01/16 13:51:34;;;;;;;1.13;0.70;;;;;;;;;;5132437;27;20059;-70
2024/01/16 13:54:01;;;;;;;2.50;1.02;;;;;;;;;;5132063;27;20047;-69
2024/01/16 13:56:27;;;;;;;2.70;0.80;;;;;;;;;;5132931;27;20047;-69
2024/01/16 13:59:14;;;;;;;1.23;0.60;;;;;;;;;;5132301;27;20051;-69
2024/01/16 14:01:41;;;;;;;3.50;0.77;;;;;;;;;;5130963;27;20543;-69
2024/01/16 14:04:08;;;;;;;1.48;0.52;;;;;;;;;;5132607;27;20076;-69
2024/01/16 14:06:35;;;;;;;1.00;0.43;;;;;;;;;;5132714;27;20047;-69
2024/01/16 14:09:21;;;;;;;1.80;0.65;;;;;;;;;;5131865;27;20047;-69
2024/01/16 14:11:48;;;;;;;1.35;0.80;;;;;;;;;;5132317;27;20062;-69
2024/01/16 14:14:15;;;;;;;1.45;0.70;;;;;;;;;;5132026;27;20047;-69
2024/01/16 14:16:41;;;;;;;1.33;0.75;;;;;;;;;;5132008;27;20088;-69
2024/01/16 14:19:20;;;;;;;1.48;0.68;;;;;;;;;;5131718;27;20054;-69
2024/01/16 14:21:47;;;;;;;3.75;1.10;;;;;;;;;;5131679;27;20054;-69
2024/01/16 14:24:14;;;;;;;1.27;0.60;;;;;;;;;;5131493;27;20443;-69
2024/01/16 14:26:44;;;;;;;2.50;0.70;;;;;;;;;;5131883;27;20047;-69
2024/01/16 14:29:11;;;;;;;1.25;0.60;;;;;;;;;;5131645;27;20039;-69
2024/01/16 14:31:38;;;;;;;1.55;0.70;;;;;;;;;;5131930;27;20045;-69
2024/01/16 14:34:04;;;;;;;1.50;0.70;;;;;;;;;;5131577;27;20071;-69
2024/01/16 14:36:31;;;;;;;1.75;0.68;;;;;;;;;;5131660;27;20055;-70
2024/01/16 14:38:58;;;;;;;2.33;0.93;;;;;;;;;;5131427;27;20134;-71
2024/01/16 14:41:25;;;;;;;2.88;1.13;;;;;;;;;;5131213;27;20116;-71
2024/01/16 14:43:52;;;;;;;2.38;0.77;;;;;;;;;;5131910;27;20104;-70
2024/01/16 14:46:18;;;;;;;1.27;0.60;;;;;;;;;;5131367;27;20039;-70
2024/01/16 14:48:48;;;;;;;1.63;0.70;;;;;;;;;;5131938;27;20054;-69
2024/01/16 14:51:14;;;;;;;1.75;0.52;;;;;;;;;;5131420;27;20052;-70